createdAt,value
2019-06-08T00:01:16.483Z,168.97
2019-06-08T00:03:42.647Z,160.12
2019-06-08T00:06:08.716Z,156.40
2019-06-08T00:08:34.796Z,169.50
2019-06-08T00:11:00.888Z,175.20
2019-06-08T00:13:27.585Z,160.18
2019-06-08T00:15:53.657Z,156.57
2019-06-08T00:18:19.720Z,165.47
2019-06-08T00:20:45.816Z,168.95
2019-06-08T00:23:11.884Z,169.02
2019-06-08T00:25:37.971Z,171.18
2019-06-08T00:28:04.041Z,163.97
2019-06-08T00:30:30.740Z,175.87
2019-06-08T00:32:56.884Z,163.52
2019-06-08T00:35:22.944Z,179.63
2019-06-08T00:37:49.123Z,178.87
2019-06-08T00:40:15.441Z,174.82
2019-06-08T00:42:41.600Z,170.15
2019-06-08T00:45:08.788Z,173.45
2019-06-08T00:47:47.030Z,174.30
2019-06-08T00:50:04.920Z,171.85
2019-06-08T00:52:30.984Z,176.30
2019-06-08T00:54:57.074Z,171.22
2019-06-08T00:57:23.830Z,178.20
2019-06-08T00:59:50.053Z,164.60
2019-06-08T01:02:16.232Z,183.32
2019-06-08T01:04:42.297Z,178.03
2019-06-08T01:07:08.371Z,177.40
2019-06-08T01:09:34.456Z,177.65
2019-06-08T01:12:00.530Z,171.20
2019-06-08T01:14:27.074Z,167.77
2019-06-08T01:16:53.392Z,174.82
2019-06-08T01:19:19.555Z,174.45
2019-06-08T01:21:45.648Z,175.90
2019-06-08T01:24:13.173Z,170.35
2019-06-08T01:26:39.353Z,173.93
2019-06-08T01:29:05.410Z,204.23
2019-06-08T01:31:31.503Z,170.77
2019-06-08T01:33:57.660Z,175.10
2019-06-08T01:36:24.772Z,173.53
2019-06-08T01:38:51.020Z,162.90
2019-06-08T01:41:17.112Z,176.37
2019-06-08T01:43:43.175Z,164.35
2019-06-08T01:46:10.551Z,175.00
2019-06-08T01:48:36.625Z,160.35
2019-06-08T01:51:02.684Z,168.62
2019-06-08T01:53:28.899Z,172.78
2019-06-08T01:55:55.029Z,161.28
2019-06-08T01:58:21.108Z,165.70
2019-06-08T02:00:48.639Z,165.82
2019-06-08T02:03:14.704Z,164.20
2019-06-08T02:05:40.988Z,165.85
2019-06-08T02:08:07.061Z,156.32
2019-06-08T02:10:33.229Z,167.68
2019-06-08T02:12:59.308Z,161.43
2019-06-08T02:15:25.505Z,163.75
2019-06-08T02:17:51.587Z,158.12
2019-06-08T02:20:17.956Z,167.98
2019-06-08T02:22:44.020Z,159.78
2019-06-08T02:25:10.719Z,159.52
2019-06-08T02:27:36.775Z,163.50
2019-06-08T02:30:15.278Z,160.75
2019-06-08T02:32:41.446Z,163.25
2019-06-08T02:35:08.212Z,165.00
2019-06-08T02:37:35.377Z,162.03
2019-06-08T02:40:04.784Z,160.52
2019-06-08T02:42:32.641Z,173.70
2019-06-08T02:45:19.019Z,159.15
2019-06-08T02:47:45.317Z,155.55
2019-06-08T02:50:11.894Z,152.12
2019-06-08T02:52:41.776Z,154.72
2019-06-08T02:55:09.082Z,152.38
2019-06-08T02:57:37.481Z,156.12
2019-06-08T03:00:06.840Z,162.82
2019-06-08T03:02:33.994Z,150.03
2019-06-08T03:05:02.122Z,155.35
2019-06-08T03:07:32.343Z,149.62
2019-06-08T03:09:59.092Z,155.52
2019-06-08T03:12:25.998Z,148.15
2019-06-08T03:14:52.878Z,152.53
2019-06-08T03:17:19.069Z,152.80
2019-06-08T03:19:45.144Z,161.25
2019-06-08T03:22:11.424Z,165.12
2019-06-08T03:24:38.728Z,153.10
2019-06-08T03:27:05.140Z,147.30
2019-06-08T03:29:32.480Z,166.35
2019-06-08T03:31:58.711Z,178.62
2019-06-08T03:34:24.902Z,175.12
2019-06-08T03:36:56.142Z,170.53
2019-06-08T03:39:19.090Z,160.72
2019-06-08T03:41:45.327Z,165.52
2019-06-08T03:44:11.641Z,237.85
2019-06-08T03:46:38.804Z,158.63
2019-06-08T03:49:05.500Z,159.52
2019-06-08T03:51:35.290Z,157.45
2019-06-08T03:53:59.590Z,168.78
2019-06-08T03:56:25.759Z,186.67
2019-06-08T03:58:51.823Z,190.82
2019-06-08T04:01:17.897Z,200.87
2019-06-08T04:03:45.986Z,188.97
2019-06-08T04:06:12.581Z,188.18
2019-06-08T04:08:40.815Z,180.80
2019-06-08T04:11:06.690Z,164.60
2019-06-08T04:13:33.051Z,168.05
2019-06-08T04:15:59.116Z,184.87
2019-06-08T04:18:25.239Z,154.35
2019-06-08T04:20:51.725Z,155.50
2019-06-08T04:23:18.056Z,150.15
2019-06-08T04:25:44.978Z,154.10
2019-06-08T04:28:12.121Z,164.52
2019-06-08T04:30:38.661Z,170.47
2019-06-08T04:33:04.988Z,155.85
2019-06-08T04:35:31.158Z,153.82
2019-06-08T04:37:57.236Z,160.43
2019-06-08T04:40:23.337Z,160.90
2019-06-08T04:42:51.039Z,159.35
2019-06-08T04:45:17.589Z,156.63
2019-06-08T04:47:45.437Z,152.22
2019-06-08T04:50:22.363Z,153.72
2019-06-08T04:52:40.877Z,161.25
2019-06-08T04:55:07.233Z,167.15
2019-06-08T04:57:33.301Z,153.87
2019-06-08T04:59:59.369Z,162.43
2019-06-08T05:02:25.562Z,159.37
2019-06-08T05:04:51.627Z,149.75
2019-06-08T05:07:17.695Z,168.20
2019-06-08T05:09:45.092Z,159.05
2019-06-08T05:12:11.336Z,150.57
2019-06-08T05:14:38.983Z,159.07
2019-06-08T05:17:05.311Z,161.82
2019-06-08T05:19:31.642Z,156.28
2019-06-08T05:21:58.491Z,154.32
2019-06-08T05:24:24.680Z,156.97
2019-06-08T05:26:50.926Z,179.42
2019-06-08T05:29:17.120Z,242.87
2019-06-08T05:31:43.555Z,158.05
2019-06-08T05:34:09.780Z,157.65
2019-06-08T05:36:35.843Z,173.90
2019-06-08T05:39:04.451Z,157.05
2019-06-08T05:41:30.616Z,152.93
2019-06-08T05:43:56.688Z,170.57
2019-06-08T05:46:22.843Z,152.93
2019-06-08T05:48:50.269Z,165.12
2019-06-08T05:51:16.665Z,154.10
2019-06-08T05:53:43.813Z,174.27
2019-06-08T05:56:10.030Z,158.72
2019-06-08T05:58:36.101Z,172.85
2019-06-08T06:01:02.198Z,165.15
2019-06-08T06:03:28.263Z,188.72
2019-06-08T06:05:54.936Z,184.60
2019-06-08T06:08:21.039Z,162.92
2019-06-08T06:10:47.116Z,187.72
2019-06-08T06:13:13.199Z,169.72
2019-06-08T06:15:39.295Z,166.20
2019-06-08T06:18:05.364Z,177.75
2019-06-08T06:20:31.471Z,168.10
2019-06-08T06:22:58.630Z,175.20
2019-06-08T06:25:24.978Z,186.00
2019-06-08T06:27:51.784Z,191.30
2019-06-08T06:30:18.316Z,179.50
2019-06-08T06:32:45.885Z,190.97
2019-06-08T06:35:12.382Z,203.67
2019-06-08T06:37:38.468Z,215.07
2019-06-08T06:40:06.364Z,205.10
2019-06-08T06:42:32.443Z,220.52
2019-06-08T06:44:58.619Z,216.17
2019-06-08T06:47:24.706Z,212.53
2019-06-08T06:49:50.803Z,188.50
2019-06-08T06:52:16.959Z,194.85
2019-06-08T06:54:43.032Z,212.90
2019-06-08T06:57:09.095Z,202.60
2019-06-08T06:59:35.216Z,201.07
2019-06-08T07:02:01.650Z,246.03
2019-06-08T07:04:27.844Z,199.93
2019-06-08T07:06:54.416Z,190.25
2019-06-08T07:09:20.736Z,196.15
2019-06-08T07:11:46.909Z,183.57
2019-06-08T07:14:13.195Z,251.67
2019-06-08T07:16:39.288Z,205.77
2019-06-08T07:19:05.402Z,207.20
2019-06-08T07:21:41.357Z,197.07
2019-06-08T07:23:59.542Z,203.20
2019-06-08T07:26:25.607Z,209.05
2019-06-08T07:28:52.539Z,240.45
2019-06-08T07:31:20.452Z,216.78
2019-06-08T07:33:46.803Z,239.10
2019-06-08T07:36:14.407Z,226.77
2019-06-08T07:38:40.516Z,210.72
2019-06-08T07:41:06.585Z,197.90
2019-06-08T07:43:32.746Z,185.03
2019-06-08T07:46:00.515Z,228.58
2019-06-08T07:48:26.684Z,225.75
2019-06-08T07:50:52.767Z,226.65
2019-06-08T07:53:18.925Z,231.93
2019-06-08T07:55:45.480Z,208.55
2019-06-08T07:58:11.850Z,243.20
2019-06-08T08:00:37.949Z,188.32
2019-06-08T08:03:04.116Z,206.05
2019-06-08T08:05:30.190Z,186.50
2019-06-08T08:07:56.857Z,175.57
2019-06-08T08:10:23.164Z,184.70
2019-06-08T08:12:49.655Z,183.90
2019-06-08T08:15:17.848Z,182.70
2019-06-08T08:17:43.939Z,199.20
2019-06-08T08:20:10.700Z,183.57
2019-06-08T08:22:38.237Z,193.32
2019-06-08T08:25:08.205Z,192.03
2019-06-08T08:27:34.658Z,185.43
2019-06-08T08:30:02.113Z,213.70
2019-06-08T08:32:28.630Z,233.70
2019-06-08T08:34:56.473Z,243.80
2019-06-08T08:37:22.695Z,230.77
2019-06-08T08:39:50.078Z,235.68
2019-06-08T08:42:18.036Z,270.27
2019-06-08T08:44:44.367Z,253.85
2019-06-08T08:47:10.440Z,268.25
2019-06-08T08:49:37.976Z,207.85
2019-06-08T08:52:04.324Z,247.42
2019-06-08T08:54:30.389Z,231.15
2019-06-08T08:57:00.763Z,254.60
2019-06-08T08:59:24.460Z,267.50
2019-06-08T09:01:51.814Z,201.62
2019-06-08T09:04:18.675Z,205.10
2019-06-08T09:06:44.888Z,238.68
2019-06-08T09:09:10.987Z,204.07
2019-06-08T09:11:40.813Z,211.90
2019-06-08T09:14:09.592Z,233.10
2019-06-08T09:16:33.208Z,226.47
2019-06-08T09:19:02.469Z,220.22
2019-06-08T09:21:28.092Z,229.75
2019-06-08T09:23:55.751Z,260.35
2019-06-08T09:26:22.471Z,249.95
2019-06-08T09:28:48.547Z,259.75
2019-06-08T09:31:15.556Z,248.05
2019-06-08T09:33:41.711Z,268.17
2019-06-08T09:36:08.261Z,234.30
2019-06-08T09:38:34.711Z,240.57
2019-06-08T09:41:03.392Z,255.80
2019-06-08T09:43:29.032Z,253.90
2019-06-08T09:45:55.405Z,249.22
2019-06-08T09:48:22.668Z,281.43
2019-06-08T09:50:48.845Z,291.73
2019-06-08T09:53:26.791Z,308.87
2019-06-08T09:55:43.107Z,344.18
2019-06-08T09:58:11.679Z,276.55
2019-06-08T10:00:37.913Z,302.95
2019-06-08T10:03:06.254Z,329.27
2019-06-08T10:05:32.128Z,286.10
2019-06-08T10:08:00.560Z,296.63
2019-06-08T10:10:26.208Z,276.27
2019-06-08T10:12:52.285Z,337.68
2019-06-08T10:15:18.688Z,348.13
2019-06-08T10:17:47.445Z,279.10
2019-06-08T10:20:13.533Z,263.00
2019-06-08T10:22:39.612Z,261.15
2019-06-08T10:25:10.297Z,274.58
2019-06-08T10:27:34.493Z,318.10
2019-06-08T10:30:03.150Z,322.90
2019-06-08T10:32:28.635Z,289.20
2019-06-08T10:34:56.432Z,310.85
2019-06-08T10:37:22.692Z,330.52
2019-06-08T10:39:48.788Z,321.87
2019-06-08T10:42:14.872Z,270.75
2019-06-08T10:44:40.951Z,277.68
2019-06-08T10:47:10.063Z,284.67
2019-06-08T10:49:35.008Z,347.93
2019-06-08T10:52:03.441Z,377.45
2019-06-08T10:54:29.297Z,362.15
2019-06-08T10:56:55.480Z,292.70
2019-06-08T10:59:21.552Z,381.60
2019-06-08T11:01:47.628Z,328.02
2019-06-08T11:04:13.713Z,326.65
2019-06-08T11:06:40.364Z,334.50
2019-06-08T11:09:12.339Z,323.13
2019-06-08T11:11:34.658Z,345.60
2019-06-08T11:14:02.529Z,347.07
2019-06-08T11:16:28.835Z,373.15
2019-06-08T11:18:55.034Z,402.73
2019-06-08T11:21:21.284Z,392.13
2019-06-08T11:24:05.134Z,379.90
2019-06-08T11:26:20.733Z,449.25
2019-06-08T11:28:43.424Z,374.65
2019-06-08T11:31:15.771Z,391.80
2019-06-08T11:33:39.000Z,407.05
2019-06-08T11:36:07.216Z,385.60
2019-06-08T11:38:33.347Z,389.23
2019-06-08T11:41:00.987Z,387.85
2019-06-08T11:43:28.729Z,359.90
2019-06-08T11:45:55.111Z,356.85
2019-06-08T11:48:22.812Z,331.98
2019-06-08T11:50:49.116Z,349.85
2019-06-08T11:53:17.857Z,361.85
2019-06-08T11:55:43.467Z,371.05
2019-06-08T11:58:12.101Z,425.98
2019-06-08T12:01:00.939Z,451.35
2019-06-08T12:03:27.635Z,450.25
2019-06-08T12:05:53.557Z,442.05
2019-06-08T12:08:20.884Z,479.85
2019-06-08T12:10:49.097Z,499.27
2019-06-08T12:13:17.726Z,515.28
2019-06-08T12:15:43.684Z,530.60
2019-06-08T12:18:11.403Z,502.88
2019-06-08T12:20:37.950Z,480.57
2019-06-08T12:23:04.145Z,513.50
2019-06-08T12:25:30.208Z,522.10
2019-06-08T12:27:58.432Z,546.10
2019-06-08T12:30:26.131Z,543.23
2019-06-08T12:32:52.325Z,520.45
2019-06-08T12:35:18.420Z,502.58
2019-06-08T12:37:44.488Z,500.12
2019-06-08T12:40:13.270Z,529.87
2019-06-08T12:42:38.568Z,623.08
2019-06-08T12:45:05.560Z,611.15
2019-06-08T12:47:31.625Z,604.83
2019-06-08T12:49:58.475Z,570.23
2019-06-08T12:52:24.878Z,601.87
2019-06-08T12:55:02.444Z,589.08
2019-06-08T12:57:20.377Z,602.58
2019-06-08T12:59:46.924Z,634.77
2019-06-08T13:02:16.593Z,646.37
2019-06-08T13:04:40.999Z,703.48
2019-06-08T13:07:08.817Z,775.13
2019-06-08T13:09:37.930Z,787.53
2019-06-08T13:12:03.164Z,774.98
2019-06-08T13:14:29.233Z,831.53
2019-06-08T13:16:55.631Z,810.90
2019-06-08T13:19:21.694Z,818.67
2019-06-08T13:21:48.616Z,818.40
2019-06-08T13:24:16.946Z,838.27
2019-06-08T13:26:43.484Z,884.37
2019-06-08T13:29:10.993Z,919.70
2019-06-08T13:31:38.330Z,919.70
2019-06-08T13:34:04.568Z,971.67
2019-06-08T13:36:30.749Z,977.80
2019-06-08T13:38:56.844Z,989.50
2019-06-08T13:41:26.025Z,991.43
2019-06-08T13:43:50.909Z,997.53
2019-06-08T13:46:19.063Z,995.20
2019-06-08T13:48:44.979Z,997.63
2019-06-08T13:51:11.936Z,996.67
2019-06-08T13:53:39.064Z,990.23
2019-06-08T13:56:07.684Z,971.10
2019-06-08T13:58:33.808Z,949.63
2019-06-08T14:01:00.300Z,923.17
2019-06-08T14:03:27.786Z,903.03
2019-06-08T14:05:54.088Z,912.87
2019-06-08T14:08:22.410Z,938.50
2019-06-08T14:10:48.298Z,962.63
2019-06-08T14:13:15.116Z,957.80
2019-06-08T14:15:41.444Z,947.70
2019-06-08T14:18:08.894Z,972.30
2019-06-08T14:20:35.215Z,973.73
2019-06-08T14:23:01.299Z,986.83
2019-06-08T14:25:28.901Z,994.10
2019-06-08T14:27:57.493Z,998.60
2019-06-08T14:30:23.803Z,999.90
2019-06-08T14:32:50.035Z,999.90
2019-06-08T14:35:18.693Z,999.90
2019-06-08T14:37:44.432Z,999.90
2019-06-08T14:40:11.244Z,999.90
2019-06-08T14:42:38.393Z,991.87
2019-06-08T14:45:07.562Z,986.67
2019-06-08T14:47:37.530Z,988.77
2019-06-08T14:50:07.833Z,999.90
2019-06-08T14:52:33.273Z,999.90
2019-06-08T14:54:59.460Z,999.90
2019-06-08T14:57:27.808Z,999.90
2019-06-08T14:59:56.317Z,999.90
2019-06-08T15:02:21.509Z,999.90
2019-06-08T15:04:48.452Z,999.90
2019-06-08T15:07:14.680Z,999.90
2019-06-08T15:09:40.749Z,999.90
2019-06-08T15:12:09.041Z,999.90
2019-06-08T15:14:35.529Z,999.90
2019-06-08T15:17:03.004Z,999.90
2019-06-08T15:19:31.211Z,999.90
2019-06-08T15:21:57.294Z,999.90
2019-06-08T15:24:24.585Z,999.90
2019-06-08T15:26:50.860Z,999.90
2019-06-08T15:29:16.937Z,999.90
2019-06-08T15:31:43.029Z,999.90
2019-06-08T15:34:10.744Z,999.90
2019-06-08T15:36:38.190Z,999.90
2019-06-08T15:39:07.798Z,999.90
2019-06-08T15:41:33.970Z,999.90
2019-06-08T15:44:00.069Z,999.90
2019-06-08T15:46:26.417Z,999.90
2019-06-08T15:48:52.604Z,999.90
2019-06-08T15:51:18.691Z,999.90
2019-06-08T15:53:44.755Z,999.90
2019-06-08T15:56:10.851Z,999.90
2019-06-08T15:58:40.164Z,999.90
2019-06-08T16:01:04.897Z,999.90
2019-06-08T16:03:31.430Z,999.90
2019-06-08T16:05:57.662Z,999.90
2019-06-08T16:08:23.783Z,999.90
2019-06-08T16:10:50.026Z,999.90
2019-06-08T16:13:16.092Z,999.90
2019-06-08T16:15:42.276Z,999.90
2019-06-08T16:18:08.352Z,999.90
2019-06-08T16:20:35.664Z,999.90
2019-06-08T16:23:01.917Z,999.90
2019-06-08T16:25:27.995Z,999.90
2019-06-08T16:27:54.189Z,999.90
2019-06-08T16:30:20.276Z,999.90
2019-06-08T16:32:46.343Z,999.90
2019-06-08T16:35:12.533Z,999.90
2019-06-08T16:37:39.832Z,999.90
2019-06-08T16:40:06.419Z,999.90
2019-06-08T16:42:32.507Z,999.90
2019-06-08T16:44:58.668Z,999.90
2019-06-08T16:47:24.742Z,999.90
2019-06-08T16:49:50.834Z,999.90
2019-06-08T16:52:17.381Z,999.90
2019-06-08T16:54:43.701Z,999.90
2019-06-08T16:57:11.205Z,999.90
2019-06-08T16:59:38.714Z,999.90
2019-06-08T17:02:04.980Z,999.90
2019-06-08T17:04:31.356Z,999.90
2019-06-08T17:06:57.547Z,998.03
2019-06-08T17:09:23.615Z,983.07
2019-06-08T17:11:50.426Z,940.83
2019-06-08T17:14:16.689Z,905.67
2019-06-08T17:16:42.784Z,865.50
2019-06-08T17:19:08.965Z,808.17
2019-06-08T17:21:36.265Z,772.23
2019-06-08T17:24:02.826Z,712.50
2019-06-08T17:26:28.924Z,640.00
2019-06-08T17:28:54.995Z,611.70
2019-06-08T17:31:21.702Z,568.05
2019-06-08T17:33:47.745Z,532.12
2019-06-08T17:36:13.800Z,509.77
2019-06-08T17:38:39.896Z,491.08
2019-06-08T17:41:05.973Z,467.65
2019-06-08T17:43:32.129Z,426.73
2019-06-08T17:45:58.370Z,422.77
2019-06-08T17:48:24.480Z,387.70
2019-06-08T17:50:50.532Z,381.43
2019-06-08T17:53:16.631Z,362.10
2019-06-08T17:55:43.934Z,356.13
2019-06-08T17:58:10.186Z,342.93
2019-06-08T18:00:37.399Z,340.45
2019-06-08T18:03:03.674Z,328.40
2019-06-08T18:05:29.759Z,302.32
2019-06-08T18:07:57.902Z,312.72
2019-06-08T18:10:23.916Z,339.98
2019-06-08T18:12:50.032Z,336.00
2019-06-08T18:15:17.509Z,316.08
2019-06-08T18:17:44.267Z,294.20
2019-06-08T18:20:13.471Z,292.48
2019-06-08T18:22:42.829Z,294.85
2019-06-08T18:25:07.864Z,286.43
2019-06-08T18:27:34.669Z,304.65
2019-06-08T18:30:08.042Z,254.72
2019-06-08T18:32:28.952Z,257.50
2019-06-08T18:34:57.128Z,259.30
2019-06-08T18:37:23.007Z,274.30
2019-06-08T18:39:49.656Z,259.70
2019-06-08T18:42:17.941Z,266.48
2019-06-08T18:44:45.813Z,271.02
2019-06-08T18:47:12.445Z,251.37
2019-06-08T18:49:41.617Z,272.52
2019-06-08T18:52:08.140Z,265.65
2019-06-08T18:54:35.424Z,262.45
2019-06-08T18:57:05.376Z,249.10
2019-06-08T18:59:30.664Z,325.10
2019-06-08T19:01:57.064Z,252.85
2019-06-08T19:04:23.232Z,267.30
2019-06-08T19:06:50.109Z,239.38
2019-06-08T19:09:17.188Z,236.28
2019-06-08T19:11:43.600Z,230.45
2019-06-08T19:14:11.396Z,228.27
2019-06-08T19:16:40.833Z,213.87
2019-06-08T19:19:07.444Z,221.80
2019-06-08T19:21:33.613Z,212.32
2019-06-08T19:23:59.928Z,205.77
2019-06-08T19:26:28.168Z,250.53
2019-06-08T19:28:54.403Z,214.82
2019-06-08T19:31:20.660Z,246.32
2019-06-08T19:33:53.320Z,208.05
2019-06-08T19:36:17.136Z,232.40
2019-06-08T19:38:44.585Z,217.55
2019-06-08T19:41:10.823Z,203.18
2019-06-08T19:43:39.968Z,196.93
2019-06-08T19:46:07.098Z,176.78
2019-06-08T19:48:32.863Z,199.77
2019-06-08T19:50:58.946Z,190.90
2019-06-08T19:53:25.028Z,184.20
2019-06-08T19:55:54.020Z,233.20
2019-06-08T19:58:19.077Z,258.02
2019-06-08T20:00:48.531Z,244.65
2019-06-08T20:03:13.464Z,229.90
2019-06-08T20:05:41.147Z,183.85
2019-06-08T20:08:08.022Z,196.05
2019-06-08T20:10:34.416Z,186.73
2019-06-08T20:13:00.780Z,190.28
2019-06-08T20:15:27.014Z,185.78
2019-06-08T20:17:54.057Z,216.45
2019-06-08T20:20:20.357Z,213.85
2019-06-08T20:22:49.017Z,212.30
2019-06-08T20:25:17.754Z,198.32
2019-06-08T20:27:45.255Z,191.88
2019-06-08T20:30:12.345Z,175.93
2019-06-08T20:32:38.611Z,173.05
2019-06-08T20:35:07.800Z,168.52
2019-06-08T20:37:33.581Z,176.93
2019-06-08T20:40:10.134Z,215.90
2019-06-08T20:42:28.927Z,189.93
2019-06-08T20:44:57.632Z,202.45
2019-06-08T20:47:23.240Z,170.72
2019-06-08T20:49:51.635Z,164.50
2019-06-08T20:52:17.737Z,169.07
2019-06-08T20:54:44.638Z,161.52
2019-06-08T20:57:10.785Z,173.93
2019-06-08T20:59:39.494Z,156.22
2019-06-08T21:02:04.860Z,160.35
2019-06-08T21:04:30.956Z,178.45
2019-06-08T21:06:57.454Z,156.97
2019-06-08T21:09:23.743Z,152.43
2019-06-08T21:11:52.502Z,148.62
2019-06-08T21:14:17.784Z,192.62
2019-06-08T21:16:44.647Z,154.95
2019-06-08T21:19:10.853Z,144.50
2019-06-08T21:21:37.692Z,144.75
2019-06-08T21:24:03.920Z,144.75
2019-06-08T21:26:30.016Z,146.25
2019-06-08T21:29:00.147Z,145.30
2019-06-08T21:31:24.088Z,150.70
2019-06-08T21:33:52.138Z,144.97
2019-06-08T21:36:18.275Z,147.00
2019-06-08T21:38:44.531Z,151.30
2019-06-08T21:41:10.623Z,148.72
2019-06-08T21:43:37.456Z,147.65
2019-06-08T21:46:03.785Z,148.45
2019-06-08T21:48:29.983Z,144.07
2019-06-08T21:50:59.552Z,153.23
2019-06-08T21:53:24.028Z,149.77
2019-06-08T21:55:50.657Z,154.30
2019-06-08T21:58:17.843Z,160.50
2019-06-08T22:00:47.196Z,151.50
2019-06-08T22:03:13.281Z,161.20
2019-06-08T22:05:39.508Z,155.25
2019-06-08T22:08:08.029Z,151.93
2019-06-08T22:10:34.148Z,158.20
2019-06-08T22:13:01.162Z,157.60
2019-06-08T22:15:27.504Z,160.65
2019-06-08T22:17:54.799Z,170.50
2019-06-08T22:20:21.155Z,159.97
2019-06-08T22:23:07.402Z,160.57
2019-06-08T22:25:33.625Z,154.85
2019-06-08T22:28:01.044Z,168.90
2019-06-08T22:30:36.348Z,160.22
2019-06-08T22:32:55.614Z,171.70
2019-06-08T22:35:21.866Z,167.65
2019-06-08T22:37:48.132Z,160.95
2019-06-08T22:40:14.452Z,160.22
2019-06-08T22:42:40.520Z,161.47
2019-06-08T22:45:08.229Z,169.35
2019-06-08T22:47:34.606Z,167.45
2019-06-08T22:50:02.157Z,169.95
2019-06-08T22:52:28.796Z,169.77
2019-06-08T22:54:58.421Z,165.47
2019-06-08T22:57:22.896Z,163.80
2019-06-08T22:59:48.995Z,180.22
2019-06-08T23:02:15.173Z,160.80
2019-06-08T23:04:41.253Z,172.00
2019-06-08T23:07:10.766Z,166.12
2019-06-08T23:09:37.324Z,165.30
2019-06-08T23:12:06.294Z,159.00
2019-06-08T23:14:31.594Z,199.02
2019-06-08T23:17:00.615Z,163.87
2019-06-08T23:19:26.410Z,163.43
2019-06-08T23:21:52.643Z,153.65
2019-06-08T23:24:18.733Z,150.30
2019-06-08T23:26:47.860Z,150.82
2019-06-08T23:29:13.389Z,161.97
2019-06-08T23:31:39.456Z,148.40
2019-06-08T23:34:09.814Z,156.47
2019-06-08T23:36:48.520Z,147.68
2019-06-08T23:39:01.576Z,149.50
2019-06-08T23:41:27.676Z,149.12
2019-06-08T23:43:53.752Z,149.80
2019-06-08T23:46:19.850Z,145.32
2019-06-08T23:48:48.161Z,140.80
2019-06-08T23:51:13.884Z,137.72
2019-06-08T23:53:39.968Z,146.30
2019-06-08T23:56:08.458Z,139.12
2019-06-08T23:58:34.017Z,144.45
